Airfield :
LOGIN :

Register | Disclaimer

   EN    FR    IT 

 










Legend :    VFR   Marginal VFR   IFR   Intensive IFR   Very Intensive IFR
Visi :
Ceiling :
>= 8 km
>= 3000ft
5 to 8 km
1000 to 3000 ft
1500m to 5 km
500 to 1000 ft
800 to 1500m
200 to 500 ft
< 800m
< 200 ft
Symbols :   Thunderstorms  Fog  Heavy snow  Heavy precipitations  Wind > 20 kt
SIGMETs :     Misc.  Thunderstorms  Icing  Turbulence  Mountain Waves  Volcanic Ashes







- Airport Elevation : 2220 ft


LOXZ - Zeltweg AB

CURRENT METAR :
  • 241150Z 15004KT 10KM -TSRA FEW005ST SCT045SC SCT050CB 16/14 Q1026 NOSIG

EXPIRED METARs :
  • 241120Z 28010KT 10KM -TSRA FEW008ST SCT040SC SCT060CB 16/14 Q1025 NOSIG
  • 241050Z 22001KT 10KM 5000W -TSRA FEW010ST SCT035SC SCT050CB 21/17 Q1023 TEMPO 5000W TSRA
  • 241020Z VRB01KT 10KM TS FEW013ST SCT035SC SCT050CB 21/17 Q1024 TEMPO TSRA
  • 240950Z 36001KT 10KM TS BKN050SC SCT060CB 21/18 Q1024 TEMPO TSRA
  • 240920Z 06003KT 10KM FEW007ST SCT040SC SCT060CB 20/17 Q1024 TEMPO TS

TAF TAF LOXZ
Valid from the 24 at 12:00 until the 24 at 21:00 UTC


241115Z 2412/2421 VRB03KT 9999 FEW020 FEW040CB BKN050
TEMPO 2409/2418 VRB15KT 5000 TSRA BKN030CB
No reported NOTAMs for that airfield.



MET'MAP, your aeronautical weather chart ! - Copyright ORBIFLY December 2007 - Disclaimer

ORBIFLY MET'MAP TEAM :

Programming & Development : Alexandra Zaïnal
Concept & Development : Baudouin d'Aumeries
Co-Development & Prog : Marc-Olivier Méhu
Technical & hardware support : Manuel Goepfert

Contact : metmap@orbifly.com




SOURCES & CREDITS :

   NOAA